createdAt,value
2022-08-21T00:00:50.495Z,27.8
2022-08-21T00:02:06.784Z,27.5
2022-08-21T00:03:23.088Z,27.4
2022-08-21T00:04:39.372Z,27.7
2022-08-21T00:05:55.666Z,26.9
2022-08-21T00:07:11.952Z,27.7
2022-08-21T00:08:28.247Z,27.4
2022-08-21T00:09:44.559Z,25.8
2022-08-21T00:11:00.847Z,26.8
2022-08-21T00:12:17.127Z,28.1
2022-08-21T00:13:32.450Z,26.8
2022-08-21T00:14:48.742Z,27.2
2022-08-21T00:16:05.025Z,27.3
2022-08-21T00:17:21.335Z,27.5
2022-08-21T00:18:37.623Z,26.3
2022-08-21T00:19:53.910Z,26.9
2022-08-21T00:21:10.207Z,27.7
2022-08-21T00:22:26.499Z,26
2022-08-21T00:23:42.803Z,26.8
2022-08-21T00:24:59.090Z,26.6
2022-08-21T00:26:15.386Z,26.9
2022-08-21T00:27:31.673Z,26.7
2022-08-21T00:28:47.974Z,25.7
2022-08-21T00:30:03.269Z,26.2
2022-08-21T00:31:19.560Z,27.3
2022-08-21T00:32:35.864Z,26.9
2022-08-21T00:33:52.164Z,25.8
2022-08-21T00:35:08.451Z,25.9
2022-08-21T00:36:24.748Z,25.2
2022-08-21T00:37:41.030Z,24.3
2022-08-21T00:38:57.326Z,25.6
2022-08-21T00:40:13.634Z,26.1
2022-08-21T00:41:29.920Z,24.9
2022-08-21T00:42:46.215Z,24.7
2022-08-21T00:44:02.510Z,25.5
2022-08-21T00:45:18.795Z,24.2
2022-08-21T00:46:34.114Z,24.4
2022-08-21T00:47:50.398Z,23.8
2022-08-21T00:49:06.707Z,24.3
2022-08-21T00:50:22.995Z,24.2
2022-08-21T00:51:39.292Z,24.9
2022-08-21T00:52:55.581Z,23.5
2022-08-21T00:54:11.862Z,23.6
2022-08-21T00:55:28.166Z,23.2
2022-08-21T00:56:44.468Z,23
2022-08-21T00:58:00.759Z,23.5
2022-08-21T00:59:17.037Z,22.9
2022-08-21T01:00:33.348Z,23.8
2022-08-21T01:01:49.644Z,22.8
2022-08-21T01:03:04.936Z,23
2022-08-21T01:04:21.237Z,23.4
2022-08-21T01:05:37.523Z,23.1
2022-08-21T01:06:53.835Z,22.3
2022-08-21T01:08:10.124Z,21.5
2022-08-21T01:09:26.422Z,22
2022-08-21T01:10:42.714Z,21.8
2022-08-21T01:11:59.005Z,21.5
2022-08-21T01:13:15.300Z,20.9
2022-08-21T01:14:31.587Z,22.1
2022-08-21T01:15:47.886Z,21.4
2022-08-21T01:17:04.185Z,19.9
2022-08-21T01:18:20.476Z,20.9
2022-08-21T01:19:35.786Z,21.1
2022-08-21T01:20:52.082Z,20.1
2022-08-21T01:22:08.363Z,19.4
2022-08-21T01:23:24.685Z,19.1
2022-08-21T01:24:40.975Z,19
2022-08-21T01:25:57.251Z,18.6
2022-08-21T01:27:13.551Z,19.5
2022-08-21T01:28:29.854Z,18.7
2022-08-21T01:29:46.135Z,18.8
2022-08-21T01:31:02.443Z,18.7
2022-08-21T01:32:18.719Z,19.2
2022-08-21T01:33:35.025Z,17.6
2022-08-21T01:34:51.323Z,19.3
2022-08-21T01:36:06.638Z,19
2022-08-21T01:37:22.915Z,19.1
2022-08-21T01:38:39.203Z,18.9
2022-08-21T01:39:55.505Z,19
2022-08-21T01:41:11.807Z,18.4
2022-08-21T01:42:28.087Z,17.5
2022-08-21T01:43:44.396Z,18.2
2022-08-21T01:45:00.000Z,18.2
2022-08-21T01:46:16.977Z,18.1
2022-08-21T01:47:33.270Z,17.7
2022-08-21T01:48:49.572Z,17.5
2022-08-21T01:50:05.848Z,16.8
2022-08-21T01:51:22.152Z,17.6
2022-08-21T01:52:37.452Z,17.2
2022-08-21T01:53:53.746Z,16.4
2022-08-21T01:55:10.052Z,16.7
2022-08-21T01:56:26.344Z,17.4
2022-08-21T01:57:42.629Z,16.9
2022-08-21T01:58:58.922Z,16.6
2022-08-21T02:00:15.212Z,17.1
2022-08-21T02:01:31.509Z,16.5
2022-08-21T02:02:47.795Z,15.5
2022-08-21T02:04:04.108Z,15.7
2022-08-21T02:05:20.382Z,15.6
2022-08-21T02:06:36.691Z,15.5
2022-08-21T02:07:52.970Z,14.7
2022-08-21T02:09:08.280Z,14.6
2022-08-21T02:10:24.578Z,13.9
2022-08-21T02:11:40.874Z,13.1
2022-08-21T02:12:57.159Z,13
2022-08-21T02:14:13.458Z,13.9
2022-08-21T02:15:29.746Z,13.2
2022-08-21T02:16:46.055Z,13.2
2022-08-21T02:18:02.347Z,12.5
2022-08-21T02:19:18.629Z,12.2
2022-08-21T02:20:34.929Z,12.5
2022-08-21T02:21:51.226Z,11.6
2022-08-21T02:23:07.523Z,11.9
2022-08-21T02:24:23.816Z,12
2022-08-21T02:25:39.119Z,11.9
2022-08-21T02:26:55.418Z,11.8
2022-08-21T02:28:11.714Z,11.8
2022-08-21T02:29:28.007Z,11.5
2022-08-21T02:30:44.290Z,11.8
2022-08-21T02:32:00.574Z,10.8
2022-08-21T02:33:15.905Z,10.6
2022-08-21T02:34:32.187Z,10.9
2022-08-21T02:35:48.492Z,10.5
2022-08-21T02:37:04.779Z,11.6
2022-08-21T02:38:21.076Z,10.6
2022-08-21T02:39:37.000Z,11.4
2022-08-21T02:40:53.000Z,11.6
2022-08-21T02:42:09.961Z,10.9
2022-08-21T02:43:26.244Z,11.3
2022-08-21T02:44:42.538Z,10.8
2022-08-21T02:45:58.836Z,11.4
2022-08-21T02:47:15.136Z,10.7
2022-08-21T02:48:31.417Z,10.6
2022-08-21T02:49:46.721Z,10.6
2022-08-21T02:51:03.032Z,10.6
2022-08-21T02:52:19.308Z,10.2
2022-08-21T02:53:35.612Z,10.5
2022-08-21T02:54:51.922Z,10.4
2022-08-21T02:56:08.205Z,10.7
2022-08-21T02:57:24.497Z,10.6
2022-08-21T02:58:40.792Z,11.1
2022-08-21T02:59:57.083Z,10.7
2022-08-21T03:01:13.385Z,10.9
2022-08-21T03:02:29.672Z,10.3
2022-08-21T03:03:45.961Z,10.4
2022-08-21T03:05:02.263Z,10.3
2022-08-21T03:06:17.576Z,10.4
2022-08-21T03:07:33.856Z,9.7
2022-08-21T03:08:50.157Z,10
2022-08-21T03:10:06.453Z,9.4
2022-08-21T03:11:22.733Z,9.5
2022-08-21T03:12:39.039Z,10.1
2022-08-21T03:13:55.336Z,9.9
2022-08-21T03:15:11.636Z,10
2022-08-21T03:16:27.916Z,9.4
2022-08-21T03:17:44.217Z,10
2022-08-21T03:19:00.506Z,9
2022-08-21T03:20:16.793Z,9.1
2022-08-21T03:21:33.090Z,9.7
2022-08-21T03:22:48.414Z,8.8
2022-08-21T03:24:04.694Z,8.3
2022-08-21T03:25:20.996Z,8.2
2022-08-21T03:26:37.273Z,8.2
2022-08-21T03:27:53.581Z,8
2022-08-21T03:29:09.870Z,8
2022-08-21T03:30:26.162Z,8.8
2022-08-21T03:31:42.444Z,7.6
2022-08-21T03:32:58.742Z,7.3
2022-08-21T03:34:15.038Z,7.7
2022-08-21T03:35:31.337Z,7.7
2022-08-21T03:36:47.635Z,6.9
2022-08-21T03:38:03.923Z,7.3
2022-08-21T03:39:19.224Z,7.4
2022-08-21T03:40:35.531Z,7.6
2022-08-21T03:41:51.756Z,7.2
2022-08-21T03:43:08.059Z,7.3
2022-08-21T03:44:24.303Z,7.3
2022-08-21T03:45:40.555Z,7.3
2022-08-21T03:46:56.794Z,6.9
2022-08-21T03:48:13.027Z,6.9
2022-08-21T03:49:29.277Z,6.7
2022-08-21T03:50:45.523Z,7.3
2022-08-21T03:52:01.751Z,6.4
2022-08-21T03:53:17.996Z,6.8
2022-08-21T03:54:34.229Z,6.6
2022-08-21T03:55:49.483Z,6.8
2022-08-21T03:57:05.726Z,6
2022-08-21T03:58:21.971Z,6.4
2022-08-21T03:59:38.212Z,6.5
2022-08-21T04:00:54.442Z,5.9
2022-08-21T04:02:10.693Z,6.3
2022-08-21T04:03:26.928Z,5.8
2022-08-21T04:04:43.171Z,5.8
2022-08-21T04:05:59.400Z,5.7
2022-08-21T04:07:15.640Z,5.6
2022-08-21T04:08:31.882Z,6
2022-08-21T04:09:48.128Z,5.5
2022-08-21T04:11:04.360Z,6.1
2022-08-21T04:12:19.609Z,5.9
2022-08-21T04:13:35.856Z,5.2
2022-08-21T04:14:52.093Z,5.8
2022-08-21T04:16:08.334Z,6
2022-08-21T04:17:24.586Z,5.2
2022-08-21T04:18:40.803Z,5
2022-08-21T04:19:57.058Z,5
2022-08-21T04:21:13.283Z,5.1
2022-08-21T04:22:29.534Z,5
2022-08-21T04:23:45.767Z,4.8
2022-08-21T04:25:02.012Z,5.3
2022-08-21T04:26:18.253Z,5.3
2022-08-21T04:27:34.487Z,4.6
2022-08-21T04:28:49.749Z,4.7
2022-08-21T04:30:05.991Z,4.8
2022-08-21T04:31:22.209Z,4.8
2022-08-21T04:32:38.450Z,4.6
2022-08-21T04:33:54.699Z,5
2022-08-21T04:35:10.930Z,5.1
2022-08-21T04:36:27.172Z,4.9
2022-08-21T04:37:43.418Z,4.9
2022-08-21T04:38:59.646Z,5.1
2022-08-21T04:40:15.894Z,5.5
2022-08-21T04:41:32.135Z,5.4
2022-08-21T04:42:48.380Z,5.2
2022-08-21T04:44:04.604Z,5.1
2022-08-21T04:45:19.870Z,5.2
2022-08-21T04:46:36.110Z,5
2022-08-21T04:47:52.344Z,4.5
2022-08-21T04:49:08.587Z,4.9
2022-08-21T04:50:24.825Z,4.9
2022-08-21T04:51:41.060Z,4.4
2022-08-21T04:52:57.303Z,4.6
2022-08-21T04:54:13.540Z,5.2
2022-08-21T04:55:29.792Z,5.1
2022-08-21T04:56:46.024Z,5.1
2022-08-21T04:58:02.255Z,5
2022-08-21T04:59:18.501Z,5.2
2022-08-21T05:00:34.736Z,5.1
2022-08-21T05:01:49.993Z,5.1
2022-08-21T05:03:06.227Z,4.9
2022-08-21T05:04:22.454Z,4.6
2022-08-21T05:05:38.693Z,5
2022-08-21T05:06:54.947Z,5.2
2022-08-21T05:08:11.171Z,5
2022-08-21T05:09:27.429Z,4.9
2022-08-21T05:10:43.660Z,4.8
2022-08-21T05:11:59.888Z,4.7
2022-08-21T05:13:16.144Z,4.8
2022-08-21T05:14:32.368Z,4.9
2022-08-21T05:15:48.617Z,5
2022-08-21T05:17:04.850Z,5.6
2022-08-21T05:18:20.115Z,5
2022-08-21T05:19:36.353Z,4.8
2022-08-21T05:20:52.590Z,5.2
2022-08-21T05:22:08.819Z,4.8
2022-08-21T05:23:25.066Z,5.1
2022-08-21T05:24:41.297Z,4.9
2022-08-21T05:25:57.537Z,5.3
2022-08-21T05:27:13.789Z,5.1
2022-08-21T05:28:30.026Z,5.3
2022-08-21T05:29:46.263Z,4.9
2022-08-21T05:31:02.500Z,5.2
2022-08-21T05:32:18.747Z,5.2
2022-08-21T05:33:34.981Z,5.2
2022-08-21T05:34:50.232Z,4.7
2022-08-21T05:36:06.470Z,4.7
2022-08-21T05:37:22.715Z,4.9
2022-08-21T05:38:38.943Z,5.1
2022-08-21T05:39:55.187Z,4.7
2022-08-21T05:41:11.432Z,4.6
2022-08-21T05:42:27.671Z,4.6
2022-08-21T05:43:43.904Z,4.8
2022-08-21T05:45:00.154Z,4.9
2022-08-21T05:46:16.397Z,4.3
2022-08-21T05:47:32.628Z,4.6
2022-08-21T05:48:48.862Z,4.5
2022-08-21T05:50:05.106Z,4.5
2022-08-21T05:51:20.348Z,4.5
2022-08-21T05:52:36.585Z,4.2
2022-08-21T05:53:52.842Z,4.5
2022-08-21T05:55:09.075Z,4.3
2022-08-21T05:56:25.322Z,4.5
2022-08-21T05:57:41.541Z,4.3
2022-08-21T05:58:57.794Z,4.3
2022-08-21T06:00:14.021Z,3.9
2022-08-21T06:01:30.285Z,4.2
2022-08-21T06:02:46.518Z,4.3
2022-08-21T06:04:02.755Z,4.1
2022-08-21T06:05:18.991Z,4.1
2022-08-21T06:06:35.231Z,3.6
2022-08-21T06:07:50.483Z,3.9
2022-08-21T06:09:06.723Z,3.8
2022-08-21T06:10:22.960Z,3.8
2022-08-21T06:11:39.197Z,3.7
2022-08-21T06:12:55.429Z,3.5
2022-08-21T06:14:11.683Z,3.6
2022-08-21T06:15:27.927Z,3.6
2022-08-21T06:16:44.151Z,3.7
2022-08-21T06:18:00.387Z,3.8
2022-08-21T06:19:16.626Z,3.5
2022-08-21T06:20:32.880Z,3.4
2022-08-21T06:21:49.106Z,3.8
2022-08-21T06:23:05.356Z,3.6
2022-08-21T06:24:20.599Z,3.7
2022-08-21T06:25:36.847Z,3.8
2022-08-21T06:26:53.081Z,3.7
2022-08-21T06:28:09.327Z,3.6
2022-08-21T06:29:25.572Z,3.4
2022-08-21T06:30:41.806Z,4.4
2022-08-21T06:31:58.044Z,3.6
2022-08-21T06:33:14.291Z,3.8
2022-08-21T06:34:30.518Z,4
2022-08-21T06:35:46.775Z,3.5
2022-08-21T06:37:03.009Z,3.7
2022-08-21T06:38:19.249Z,3.4
2022-08-21T06:39:35.499Z,3.1
2022-08-21T06:40:50.740Z,3.4
2022-08-21T06:42:06.982Z,3.4
2022-08-21T06:43:23.227Z,3.2
2022-08-21T06:44:39.469Z,3.4
2022-08-21T06:45:55.705Z,3.6
2022-08-21T06:47:11.947Z,3.1
2022-08-21T06:48:27.219Z,3.2
2022-08-21T06:49:43.452Z,3.4
2022-08-21T06:50:59.695Z,3.3
2022-08-21T06:52:15.931Z,3.2
2022-08-21T06:53:32.176Z,3.1
2022-08-21T06:54:48.417Z,3.2
2022-08-21T06:56:04.637Z,3
2022-08-21T06:57:20.895Z,3.1
2022-08-21T06:58:37.130Z,3.4
2022-08-21T06:59:53.370Z,3.2
2022-08-21T07:01:09.612Z,3.4
2022-08-21T07:02:25.850Z,3.2
2022-08-21T07:03:42.095Z,2.9
2022-08-21T07:04:57.355Z,2.6
2022-08-21T07:06:13.583Z,2.6
2022-08-21T07:07:29.824Z,2.7
2022-08-21T07:08:46.073Z,3.5
2022-08-21T07:10:02.296Z,3
2022-08-21T07:11:18.549Z,3
2022-08-21T07:12:34.788Z,2.5
2022-08-21T07:13:51.028Z,2.9
2022-08-21T07:15:07.275Z,2.4
2022-08-21T07:16:23.500Z,2.6
2022-08-21T07:17:39.749Z,2.2
2022-08-21T07:18:56.000Z,2.2
2022-08-21T07:20:12.227Z,2.4
2022-08-21T07:21:27.471Z,2.6
2022-08-21T07:22:43.730Z,2.6
2022-08-21T07:23:59.970Z,2.6
2022-08-21T07:25:16.203Z,2.6
2022-08-21T07:26:32.455Z,2.8
2022-08-21T07:27:48.686Z,2.3
2022-08-21T07:29:04.930Z,2.6
2022-08-21T07:30:21.158Z,2.7
2022-08-21T07:31:37.410Z,2.6
2022-08-21T07:32:53.650Z,2.8
2022-08-21T07:34:09.880Z,2.4
2022-08-21T07:35:26.120Z,2.9
2022-08-21T07:36:42.368Z,2.6
2022-08-21T07:37:57.620Z,2.3
2022-08-21T07:39:13.860Z,2.4
2022-08-21T07:40:30.105Z,2.5
2022-08-21T07:41:46.345Z,2.5
2022-08-21T07:43:02.581Z,2.6
2022-08-21T07:44:18.816Z,2.3
2022-08-21T07:45:35.063Z,2.6
2022-08-21T07:46:51.295Z,2.4
2022-08-21T07:48:07.533Z,2.3
2022-08-21T07:49:23.786Z,2.5
2022-08-21T07:50:40.028Z,2.4
2022-08-21T07:51:56.262Z,2.3
2022-08-21T07:53:12.494Z,2.7
2022-08-21T07:54:27.764Z,2.1
2022-08-21T07:55:44.003Z,2.2
2022-08-21T07:57:00.244Z,2.2
2022-08-21T07:58:16.479Z,2.5
2022-08-21T07:59:32.708Z,2.6
2022-08-21T08:00:48.957Z,2.3
2022-08-21T08:02:05.187Z,2.3
2022-08-21T08:03:21.448Z,2.1
2022-08-21T08:04:37.675Z,2.3
2022-08-21T08:05:53.923Z,2.2
2022-08-21T08:07:10.164Z,2
2022-08-21T08:08:26.390Z,2
2022-08-21T08:09:42.643Z,2
2022-08-21T08:10:57.913Z,2.3
2022-08-21T08:12:14.140Z,2
2022-08-21T08:13:30.367Z,2.6
2022-08-21T08:14:46.613Z,2.5
2022-08-21T08:16:02.860Z,2.7
2022-08-21T08:17:19.100Z,2.4
2022-08-21T08:18:35.331Z,2.4
2022-08-21T08:19:51.572Z,1.7
2022-08-21T08:21:07.827Z,1.8
2022-08-21T08:22:24.069Z,1.6
2022-08-21T08:23:40.301Z,1.9
2022-08-21T08:24:56.530Z,2.2
2022-08-21T08:26:12.763Z,1.9
2022-08-21T08:27:28.030Z,1.8
2022-08-21T08:28:44.269Z,1.8
2022-08-21T08:30:00.501Z,2.3
2022-08-21T08:31:16.758Z,1.5
2022-08-21T08:32:32.998Z,1.6
2022-08-21T08:33:49.227Z,2.1
2022-08-21T08:35:05.477Z,1.8
2022-08-21T08:36:21.709Z,1.5
2022-08-21T08:37:37.956Z,1.5
2022-08-21T08:38:54.200Z,1.6
2022-08-21T08:40:10.431Z,1.4
2022-08-21T08:41:26.669Z,1.6
2022-08-21T08:42:42.904Z,1.3
2022-08-21T08:43:58.164Z,1.6
2022-08-21T08:45:14.415Z,1.7
2022-08-21T08:46:30.645Z,1.4
2022-08-21T08:47:46.894Z,1.5
2022-08-21T08:49:03.125Z,1.4
2022-08-21T08:50:19.354Z,1.7
2022-08-21T08:51:35.601Z,1.4
2022-08-21T08:52:51.855Z,2
2022-08-21T08:54:08.077Z,1.6
2022-08-21T08:55:24.308Z,1.2
2022-08-21T08:56:40.556Z,1.5
2022-08-21T08:57:56.793Z,1.7
2022-08-21T08:59:13.037Z,1.4
2022-08-21T09:00:28.282Z,1.6
2022-08-21T09:01:44.531Z,1.5
2022-08-21T09:03:00.762Z,1.5
2022-08-21T09:04:17.020Z,1.6
2022-08-21T09:05:33.238Z,1.6
2022-08-21T09:06:49.488Z,1.6
2022-08-21T09:08:05.744Z,1.6
2022-08-21T09:09:21.979Z,1.5
2022-08-21T09:10:38.208Z,1.5
2022-08-21T09:11:54.437Z,1.6
2022-08-21T09:13:10.694Z,1.6
2022-08-21T09:14:26.934Z,1.3
2022-08-21T09:15:43.177Z,1.4
2022-08-21T09:16:58.432Z,1.3
2022-08-21T09:18:14.658Z,1.5
2022-08-21T09:19:30.892Z,1.8
2022-08-21T09:20:47.143Z,1.6
2022-08-21T09:22:03.384Z,1.5
2022-08-21T09:23:19.622Z,1.6
2022-08-21T09:24:35.854Z,1.6
2022-08-21T09:25:52.089Z,1.8
2022-08-21T09:27:08.323Z,1.7
2022-08-21T09:28:24.560Z,1.9
2022-08-21T09:29:40.803Z,1.8
2022-08-21T09:30:57.067Z,1.8
2022-08-21T09:32:13.299Z,1.7
2022-08-21T09:33:28.552Z,2.2
2022-08-21T09:34:44.778Z,1.4
2022-08-21T09:36:01.011Z,1.8
2022-08-21T09:37:17.250Z,2.3
2022-08-21T09:38:33.509Z,1.7
2022-08-21T09:39:49.751Z,1.8
2022-08-21T09:41:05.981Z,2.1
2022-08-21T09:42:22.215Z,1.9
2022-08-21T09:43:38.458Z,2.1
2022-08-21T09:44:54.707Z,2
2022-08-21T09:46:10.948Z,1.7
2022-08-21T09:47:27.193Z,1.6
2022-08-21T09:48:43.410Z,1.4
2022-08-21T09:49:58.665Z,1.7
2022-08-21T09:51:14.911Z,1.9
2022-08-21T09:52:31.139Z,1.6
2022-08-21T09:53:47.376Z,1.6
2022-08-21T09:55:03.627Z,1.6
2022-08-21T09:56:19.850Z,1.5
2022-08-21T09:57:36.102Z,1.8
2022-08-21T09:58:52.331Z,1.8
2022-08-21T10:00:08.569Z,1.6
2022-08-21T10:01:24.809Z,1.6
2022-08-21T10:02:41.058Z,1.7
2022-08-21T10:03:57.296Z,1.6
2022-08-21T10:05:13.519Z,2.1
2022-08-21T10:06:28.777Z,1.4
2022-08-21T10:07:45.015Z,1.5
2022-08-21T10:09:01.273Z,1.3
2022-08-21T10:10:17.491Z,2.2
2022-08-21T10:11:33.736Z,1.5
2022-08-21T10:12:49.973Z,1.5
2022-08-21T10:14:06.220Z,1.5
2022-08-21T10:15:22.449Z,1.7
2022-08-21T10:16:38.713Z,1.6
2022-08-21T10:17:54.956Z,1.7
2022-08-21T10:19:11.177Z,1.5
2022-08-21T10:20:27.418Z,1.5
2022-08-21T10:21:43.655Z,1.5
2022-08-21T10:22:58.900Z,1.6
2022-08-21T10:24:15.129Z,1.3
2022-08-21T10:25:31.385Z,1.6
2022-08-21T10:26:47.627Z,1.2
2022-08-21T10:28:03.865Z,1.4
2022-08-21T10:29:20.101Z,1.5
2022-08-21T10:30:36.341Z,1.4
2022-08-21T10:31:52.568Z,1.5
2022-08-21T10:33:08.816Z,1.6
2022-08-21T10:34:25.041Z,1.6
2022-08-21T10:35:41.297Z,1.5
2022-08-21T10:36:57.521Z,1.5
2022-08-21T10:38:13.754Z,1.5
2022-08-21T10:39:29.016Z,1.9
2022-08-21T10:40:45.256Z,1.4
2022-08-21T10:42:01.500Z,1.6
2022-08-21T10:43:17.719Z,1.5
2022-08-21T10:44:33.968Z,1.2
2022-08-21T10:45:50.203Z,1.5
2022-08-21T10:47:06.435Z,1.5
2022-08-21T10:48:22.678Z,1.8
2022-08-21T10:49:38.926Z,1.4
2022-08-21T10:50:55.164Z,1.7
2022-08-21T10:52:11.393Z,1.4
2022-08-21T10:53:27.632Z,1.4
2022-08-21T10:54:43.883Z,1.4
2022-08-21T10:56:00.116Z,1.3
2022-08-21T10:57:15.356Z,1.3
2022-08-21T10:58:31.605Z,1.5
2022-08-21T10:59:47.843Z,1.6
2022-08-21T11:01:04.077Z,1.5
2022-08-21T11:02:20.319Z,1.4
2022-08-21T11:03:35.591Z,1.5
2022-08-21T11:04:51.813Z,1.5
2022-08-21T11:06:08.044Z,1.4
2022-08-21T11:07:24.284Z,1.5
2022-08-21T11:08:40.548Z,1.5
2022-08-21T11:09:56.772Z,1.5
2022-08-21T11:11:13.006Z,1.5
2022-08-21T11:12:29.248Z,1.5
2022-08-21T11:13:45.497Z,1.5
2022-08-21T11:15:01.724Z,1.6
2022-08-21T11:16:17.946Z,1.4
2022-08-21T11:17:34.188Z,1.3
2022-08-21T11:18:50.423Z,1.4
2022-08-21T11:20:05.696Z,1.7
2022-08-21T11:21:21.928Z,1.4
2022-08-21T11:22:38.155Z,1.4
2022-08-21T11:23:54.406Z,1.3
2022-08-21T11:25:10.631Z,1.5
2022-08-21T11:26:26.000Z,1.4
2022-08-21T11:27:43.114Z,1.4
2022-08-21T11:28:59.367Z,1.5
2022-08-21T11:30:15.598Z,1.4
2022-08-21T11:31:31.828Z,1.4
2022-08-21T11:32:48.055Z,1.8
2022-08-21T11:34:04.306Z,1.4
2022-08-21T11:35:20.532Z,1.3
2022-08-21T11:36:35.803Z,1.8
2022-08-21T11:37:52.040Z,1.4
2022-08-21T11:39:08.284Z,1.5
2022-08-21T11:40:24.528Z,1.4
2022-08-21T11:41:40.754Z,1.6
2022-08-21T11:42:56.995Z,1.1
2022-08-21T11:44:13.249Z,1.4
2022-08-21T11:45:29.474Z,1.4
2022-08-21T11:46:45.697Z,1.4
2022-08-21T11:48:01.934Z,1.3
2022-08-21T11:49:18.188Z,1.2
2022-08-21T11:50:34.440Z,1.7
2022-08-21T11:51:50.650Z,1.5
2022-08-21T11:53:05.931Z,1.4
2022-08-21T11:54:22.171Z,1.3
2022-08-21T11:55:38.395Z,1.4
2022-08-21T11:56:54.621Z,1.4
2022-08-21T11:58:10.856Z,1.3
2022-08-21T11:59:27.118Z,1.2
2022-08-21T12:00:43.342Z,1.2
2022-08-21T12:01:59.601Z,1.9
2022-08-21T12:03:15.822Z,1.4
2022-08-21T12:04:32.066Z,1.4
2022-08-21T12:05:48.313Z,1.3
2022-08-21T12:07:04.545Z,1.2
2022-08-21T12:08:20.769Z,1.4
2022-08-21T12:09:36.019Z,1.3
2022-08-21T12:10:52.278Z,1.5
2022-08-21T12:12:08.509Z,1.2
2022-08-21T12:13:24.747Z,1.8
2022-08-21T12:14:41.002Z,1.4
2022-08-21T12:15:57.214Z,1.1
2022-08-21T12:17:13.452Z,1.2
2022-08-21T12:18:29.694Z,1.1
2022-08-21T12:19:45.955Z,1.2
2022-08-21T12:21:02.185Z,1.2
2022-08-21T12:22:18.408Z,1.1
2022-08-21T12:23:34.643Z,1.3
2022-08-21T12:24:50.891Z,1.3
2022-08-21T12:26:06.155Z,1.4
2022-08-21T12:27:22.386Z,1.3
2022-08-21T12:28:38.620Z,1.1
2022-08-21T12:29:54.867Z,1.2
2022-08-21T12:31:11.107Z,1.7
2022-08-21T12:32:27.336Z,1.3
2022-08-21T12:33:43.589Z,1.3
2022-08-21T12:34:59.820Z,1.3
2022-08-21T12:36:16.060Z,1.2
2022-08-21T12:37:32.297Z,1.9
2022-08-21T12:40:04.797Z,1.3
2022-08-21T12:41:21.034Z,1.2
2022-08-21T12:42:36.282Z,1.2
2022-08-21T12:43:52.518Z,1.2
2022-08-21T12:45:08.747Z,1.5
2022-08-21T12:46:24.986Z,1.1
2022-08-21T12:47:41.216Z,1.1
2022-08-21T12:48:57.460Z,1.2
2022-08-21T12:50:13.696Z,1.3
2022-08-21T12:51:29.945Z,1
2022-08-21T12:52:46.181Z,1.3
2022-08-21T12:54:02.414Z,1.3
2022-08-21T12:55:18.679Z,1.2
2022-08-21T12:56:34.900Z,1.2
2022-08-21T12:57:51.159Z,1.3
2022-08-21T12:59:06.417Z,1.1
2022-08-21T13:00:22.627Z,1.2
2022-08-21T13:01:38.868Z,1.3
2022-08-21T13:02:55.125Z,1.5
2022-08-21T13:04:11.358Z,1.3
2022-08-21T13:05:27.579Z,1.7
2022-08-21T13:06:43.836Z,1.3
2022-08-21T13:08:00.067Z,1.2
2022-08-21T13:09:16.307Z,1.5
2022-08-21T13:10:32.555Z,1.3
2022-08-21T13:11:48.782Z,2
2022-08-21T13:13:05.024Z,1.3
2022-08-21T13:14:21.259Z,1.4
2022-08-21T13:15:36.528Z,1.1
2022-08-21T13:16:52.751Z,1.3
2022-08-21T13:18:08.994Z,1.3
2022-08-21T13:19:25.230Z,1.3
2022-08-21T13:20:41.497Z,1.7
2022-08-21T13:21:57.715Z,1.2
2022-08-21T13:23:13.967Z,1.2
2022-08-21T13:24:30.201Z,1.1
2022-08-21T13:25:46.444Z,1.4
2022-08-21T13:27:02.662Z,1.2
2022-08-21T13:28:18.899Z,1.4
2022-08-21T13:29:35.157Z,1.1
2022-08-21T13:30:51.379Z,1.2
2022-08-21T13:32:06.632Z,1.3
2022-08-21T13:33:22.878Z,1.2
2022-08-21T13:34:39.123Z,1.2
2022-08-21T13:35:55.374Z,1.2
2022-08-21T13:37:11.616Z,1.3
2022-08-21T13:38:27.845Z,1.2
2022-08-21T13:39:44.080Z,1
2022-08-21T13:41:00.325Z,1.1
2022-08-21T13:42:16.558Z,1.1
2022-08-21T13:43:32.822Z,1.4
2022-08-21T13:44:49.044Z,1.6
2022-08-21T13:46:05.275Z,1.6
2022-08-21T13:47:21.513Z,1.4
2022-08-21T13:48:36.784Z,1.3
2022-08-21T13:49:53.003Z,1.4
2022-08-21T13:51:09.239Z,1.3
2022-08-21T13:52:25.478Z,1.5
2022-08-21T13:53:41.719Z,1.2
2022-08-21T13:54:57.962Z,1
2022-08-21T13:56:14.206Z,1.3
2022-08-21T13:57:30.443Z,1.3
2022-08-21T13:58:46.682Z,1.2
2022-08-21T14:00:02.923Z,1.4
2022-08-21T14:01:19.155Z,1.4
2022-08-21T14:02:35.401Z,1.5
2022-08-21T14:03:51.646Z,2.1
2022-08-21T14:05:06.914Z,1.6
2022-08-21T14:06:23.160Z,1.4
2022-08-21T14:07:39.377Z,1.3
2022-08-21T14:08:55.608Z,1.5
2022-08-21T14:10:11.877Z,1.4
2022-08-21T14:11:28.092Z,1.3
2022-08-21T14:12:44.340Z,1.5
2022-08-21T14:14:00.570Z,1.3
2022-08-21T14:15:16.833Z,1.4
2022-08-21T14:16:33.064Z,1.6
2022-08-21T14:17:49.287Z,1.4
2022-08-21T14:19:05.527Z,1.2
2022-08-21T14:20:21.790Z,1.2
2022-08-21T14:21:37.018Z,1.5
2022-08-21T14:22:53.274Z,1.4
2022-08-21T14:24:09.525Z,1.4
2022-08-21T14:25:25.739Z,1.1
2022-08-21T14:26:41.978Z,1.5
2022-08-21T14:27:58.227Z,1.7
2022-08-21T14:29:14.465Z,1.4
2022-08-21T14:30:30.711Z,1.4
2022-08-21T14:31:46.948Z,1.4
2022-08-21T14:34:19.419Z,1.1
2022-08-21T14:35:35.667Z,1.1
2022-08-21T14:36:51.915Z,1.4
2022-08-21T14:38:07.163Z,1.3
2022-08-21T14:39:23.404Z,1.1
2022-08-21T14:40:39.635Z,1.3
2022-08-21T14:41:55.874Z,1.4
2022-08-21T14:43:12.137Z,1.3
2022-08-21T14:44:28.360Z,1.4
2022-08-21T14:45:44.603Z,1.4
2022-08-21T14:47:00.853Z,1.3
2022-08-21T14:48:17.073Z,1.2
2022-08-21T14:49:33.308Z,1.1
2022-08-21T14:50:49.561Z,1.4
2022-08-21T14:52:05.815Z,1.4
2022-08-21T14:53:22.045Z,1.2
2022-08-21T14:54:37.283Z,1.4
2022-08-21T14:55:53.521Z,1.4
2022-08-21T14:57:09.762Z,1.5
2022-08-21T14:58:26.008Z,1.2
2022-08-21T14:59:42.265Z,1.3
2022-08-21T15:00:58.511Z,1.4
2022-08-21T15:02:14.732Z,1.3
2022-08-21T15:03:30.988Z,1.6
2022-08-21T15:04:47.216Z,1.5
2022-08-21T15:06:03.472Z,1.2
2022-08-21T15:07:19.712Z,1.2
2022-08-21T15:08:35.934Z,1.4
2022-08-21T15:09:52.172Z,1.3
2022-08-21T15:11:07.417Z,1.3
2022-08-21T15:12:23.661Z,1.2
2022-08-21T15:13:39.893Z,1.4
2022-08-21T15:14:56.150Z,1.3
2022-08-21T15:16:12.397Z,1.4
2022-08-21T15:17:28.648Z,1.3
2022-08-21T15:18:43.907Z,1.3
2022-08-21T15:20:00.139Z,1.6
2022-08-21T15:21:16.385Z,1.5
2022-08-21T15:22:32.606Z,1.4
2022-08-21T15:23:48.836Z,1.5
2022-08-21T15:25:05.114Z,1.4
2022-08-21T15:26:21.319Z,1.5
2022-08-21T15:27:37.583Z,1.5
2022-08-21T15:28:53.822Z,1.3
2022-08-21T15:30:10.047Z,1.4
2022-08-21T15:31:26.278Z,1.2
2022-08-21T15:32:42.509Z,1.4
2022-08-21T15:33:58.763Z,1.4
2022-08-21T15:35:14.017Z,1.4
2022-08-21T15:36:30.278Z,1.4
2022-08-21T15:37:46.493Z,1.7
2022-08-21T15:39:02.733Z,1.5
2022-08-21T15:40:18.970Z,1.4
2022-08-21T15:41:35.205Z,1.4
2022-08-21T15:42:51.478Z,1.3
2022-08-21T15:44:07.695Z,1.3
2022-08-21T15:45:23.932Z,1.7
2022-08-21T15:46:40.171Z,1.6
2022-08-21T15:47:56.410Z,1.9
2022-08-21T15:49:12.673Z,1.5
2022-08-21T15:50:28.884Z,1.3
2022-08-21T15:51:44.163Z,1.2
2022-08-21T15:53:00.404Z,1.4
2022-08-21T15:54:16.628Z,1.4
2022-08-21T15:55:32.859Z,1.1
2022-08-21T15:56:49.114Z,1.4
2022-08-21T15:58:05.351Z,1.4
2022-08-21T15:59:21.602Z,1.4
2022-08-21T16:00:37.828Z,1.2
2022-08-21T16:01:54.062Z,1.2
2022-08-21T16:03:10.306Z,1.5
2022-08-21T16:04:26.542Z,1.2
2022-08-21T16:05:42.787Z,1.3
2022-08-21T16:06:59.051Z,1.3
2022-08-21T16:08:14.299Z,1.1
2022-08-21T16:09:30.516Z,1.2
2022-08-21T16:10:46.755Z,1.4
2022-08-21T16:12:02.996Z,1.4
2022-08-21T16:13:19.265Z,1.4
2022-08-21T16:14:35.473Z,1.5
2022-08-21T16:15:51.739Z,1.1
2022-08-21T16:17:07.984Z,1.4
2022-08-21T16:18:24.000Z,1.2
2022-08-21T16:19:40.430Z,1.3
2022-08-21T16:20:56.707Z,1.4
2022-08-21T16:22:12.935Z,1.5
2022-08-21T16:23:29.160Z,1.3
2022-08-21T16:24:44.409Z,1.2
2022-08-21T16:26:00.644Z,1.2
2022-08-21T16:27:16.897Z,1.3
2022-08-21T16:28:33.169Z,1.4
2022-08-21T16:29:49.371Z,1.2
2022-08-21T16:31:05.604Z,1.3
2022-08-21T16:32:21.860Z,1.4
2022-08-21T16:33:38.122Z,1.2
2022-08-21T16:34:54.329Z,1.6
2022-08-21T16:36:10.599Z,1.3
2022-08-21T16:37:26.838Z,1.2
2022-08-21T16:38:43.069Z,1.3
2022-08-21T16:39:59.284Z,1.4
2022-08-21T16:41:14.536Z,1.7
2022-08-21T16:42:30.781Z,1.7
2022-08-21T16:43:47.054Z,1.2
2022-08-21T16:45:03.294Z,1.2
2022-08-21T16:46:19.521Z,1.4
2022-08-21T16:47:35.734Z,1.2
2022-08-21T16:48:51.975Z,1.5
2022-08-21T16:50:08.228Z,1.1
2022-08-21T16:51:24.466Z,1.2
2022-08-21T16:52:40.710Z,1.3
2022-08-21T16:53:56.937Z,1.3
2022-08-21T16:55:13.188Z,1.3
2022-08-21T16:56:29.452Z,1.1
2022-08-21T16:57:44.681Z,1.4
2022-08-21T16:59:00.937Z,1.2
2022-08-21T17:00:17.191Z,1.2
2022-08-21T17:01:33.406Z,1.3
2022-08-21T17:02:49.630Z,1.3
2022-08-21T17:04:05.903Z,1.2
2022-08-21T17:05:22.122Z,1.5
2022-08-21T17:06:38.348Z,1.5
2022-08-21T17:07:54.618Z,1.3
2022-08-21T17:09:10.832Z,1.1
2022-08-21T17:10:27.081Z,1.2
2022-08-21T17:11:43.302Z,1.3
2022-08-21T17:12:59.557Z,1.1
2022-08-21T17:14:14.804Z,1.2
2022-08-21T17:15:31.042Z,1.3
2022-08-21T17:16:47.279Z,1.4
2022-08-21T17:18:03.535Z,1.4
2022-08-21T17:19:19.769Z,1.2
2022-08-21T17:20:36.010Z,1.3
2022-08-21T17:21:52.242Z,1.2
2022-08-21T17:23:08.475Z,1.1
2022-08-21T17:24:24.722Z,1.1
2022-08-21T17:25:40.964Z,1.3
2022-08-21T17:26:57.192Z,1.3
2022-08-21T17:28:13.457Z,1.3